Latest Coastal Weather Observations for Smithton

IDV60701

Issued at 6:51 pm EST Saturday 25 April 2015 (issued every 10 minutes, with the page automatically refreshed every 10 minutes)

About coastal observations | Map of coastal stations | Coastal observations for VIC | Marine services | Other Formats
Station Details ID: 091292 Name: SMITHTON AERODROME Lat: -40.83 Lon: 145.08 Height: 7.5 m
Data from the previous 72 hours. | See also: Recent months at Smithton
Date/Time
EST
Temp

°C
Wind Pressure Rain
since 9am
mm
Weather Cloud Vis
km
Sea
Height
m
Swell
Dir
 
Speed
knots
Gust
knots
hPa Trend Height
m
Period
s
Dir
25/06:30pm 9.8 SSW 12 15 1011.9 - 0.0 - - - - - - -
25/06:00pm 10.4 SSW 13 17 1011.4 - 0.0 - - - - - - -
25/05:30pm 11.3 SSW 15 19 1010.9 - 0.0 - - - - - - -
25/05:00pm 12.6 SSW 15 20 1010.5 - 0.0 - - - - - - -
25/04:30pm 14.0 SW 16 21 1010.2 - 0.0 - - - - - - -
25/04:00pm 15.3 SW 15 19 1009.8 - 0.0 - - - - - - -
25/03:30pm 16.8 SW 13 16 1009.5 - 0.0 - - - - - - -
25/03:00pm 16.6 SW 10 13 1009.3 - 0.0 - - - - - - -
25/02:30pm 16.9 SSW 9 13 1009.1 - 0.0 - - - - - - -
25/02:00pm 16.8 SSW 9 12 1009.0 - 0.0 - - - - - - -
25/01:30pm 16.3 SSW 9 11 1009.0 - 0.0 - - - - - - -
25/01:00pm 16.4 SSW 8 11 1009.0 - 0.0 - - - - - - -
25/12:30pm 16.2 SSW 8 11 1009.0 - 0.0 - - - - - - -
25/12:00pm 16.1 S 8 11 1009.1 - 0.0 - - - - - - -
25/11:30am 15.5 S 9 13 1009.1 - 0.0 - - - - - - -
25/11:00am 14.9 SSW 10 12 1009.0 - 0.0 - - - - - - -
25/10:30am 14.6 SSW 11 14 1008.8 - 0.0 - - - - - - -
25/10:00am 14.5 S 11 13 1008.7 - 0.0 - - - - - - -
25/09:30am 13.3 S 11 14 1008.5 - 0.0 - - - - - - -
25/09:00am 12.9 S 12 16 1008.4 - 2.2 - - - - - - -
25/08:30am 11.9 S 10 13 1008.1 - 2.2 - - - - - - -
25/08:00am 10.9 S 10 13 1007.8 - 2.2 - - - - - - -
25/07:30am 9.8 S 10 12 1007.5 - 2.2 - - - - - - -
25/07:00am 9.8 S 7 9 1007.1 - 2.2 - - - - - - -
25/06:30am 10.1 SSW 8 10 1006.8 - 2.2 - - - - - - -
25/06:00am 10.7 SSW 11 13 1006.4 - 2.2 - - - - - - -
25/05:30am 10.5 S 10 12 1006.1 - 2.2 - - - - - - -
25/05:00am 10.7 SSW 11 13 1005.8 - 2.2 - - - - - - -
25/04:30am 10.1 SSW 10 11 1005.7 - 2.2 - - - - - - -
25/04:00am 8.9 SSW 5 6 1005.5 - 2.2 - - - - - - -
25/03:30am 8.0 SSW 1 3 1005.4 - 2.2 - - - - - - -
25/03:00am 8.5 SSW 2 4 1005.2 - 2.2 - - - - - - -
25/02:30am 8.8 SSW 6 7 1005.2 - 2.2 - - - - - - -
25/02:00am 8.9 SSW 7 8 1005.2 - 2.2 - - - - - - -
25/01:30am 9.8 SSW 10 11 1005.0 - 2.2 - - - - - - -
25/01:00am 9.9 SSW 10 11 1004.9 - 2.2 - - - - - - -
25/12:30am 10.8 SSW 10 11 1004.9 - 2.2 - - - - - - -
25/12:00am 11.2 SSW 10 12 1004.9 - 2.2 - - - - - - -
 
Date/Time
EST
Temp

°C
Wind Pressure Rain
since 9am
mm
Weather Cloud Vis
km
Sea
Height
m
Swell
Dir
 
Speed
knots
Gust
knots
hPa Trend Height
m
Period
s
Dir
24/11:30pm 11.4 SSW 9 11 1004.8 - 2.2 - - - - - - -
24/11:00pm 11.7 SW 10 11 1004.8 - 2.2 - - - - - - -
24/10:30pm 11.7 SSW 11 13 1004.8 - 2.2 - - - - - - -
24/10:00pm 11.7 SW 9 11 1004.6 - 2.2 - - - - - - -
24/09:30pm 11.8 SSW 9 11 1004.5 - 2.2 - - - - - - -
24/09:00pm 12.0 SSW 9 11 1004.1 - 2.2 - - - - - - -
24/08:30pm 12.2 SW 7 8 1004.0 - 2.2 - - - - - - -
24/08:00pm 12.5 SSW 6 8 1003.8 - 2.2 - - - - - - -
24/07:30pm 12.4 SSW 6 7 1003.6 - 2.2 - - - - - - -
24/07:00pm 12.1 SSW 3 4 1003.4 - 2.2 - - - - - - -
24/06:30pm 12.1 SSW 3 4 1003.1 - 2.2 - - - - - - -
24/06:00pm 12.8 SSW 5 6 1002.7 - 2.2 - - - - - - -
24/05:30pm 13.2 SSW 5 6 1002.2 - 2.2 - - - - - - -
24/05:00pm 13.5 W 4 5 1002.1 - 2.0 - - - - - - -
24/04:30pm 13.5 W 4 5 1002.3 - 2.0 - - - - - - -
24/04:00pm 13.4 NNW 4 4 1002.5 - 1.8 - - - - - - -
24/03:30pm 13.5 N 3 4 1002.6 - 1.2 - - - - - - -
24/03:00pm 13.7 N 6 7 1002.7 - 0.6 - - - - - - -
24/02:30pm 14.2 NNW 6 7 1002.4 - 0.2 - - - - - - -
24/02:00pm 14.5 SSW 4 5 1002.1 - 0.0 - - - - - - -
24/01:30pm 14.6 SSE 4 5 1002.2 - 0.0 - - - - - - -
24/01:00pm 15.0 SSE 4 5 1002.6 - 0.0 - - - - - - -
24/12:30pm 15.6 SSE 1 4 1003.0 - 0.0 - - - - - - -
24/12:00pm 15.6 SSE 3 4 1003.3 - 0.0 - - - - - - -
24/11:30am 15.3 S 2 4 1003.8 - 0.0 - - - - - - -
24/11:00am 14.8 CALM 0 0 1004.1 - 0.0 - - - - - - -
24/10:30am 14.4 CALM 0 0 1004.3 - 0.0 - - - - - - -
24/10:00am 14.1 S 4 5 1004.6 - 0.0 - - - - - - -
24/09:30am 13.5 SSW 5 6 1004.7 - 0.0 - - - - - - -
24/09:00am 12.5 S 4 6 1005.1 - 0.4 - - - - - - -
24/08:30am 12.1 CALM 0 3 1005.0 - 0.4 - - - - - - -
24/08:00am 11.8 S 5 7 1005.2 - 0.4 - - - - - - -
24/07:30am 11.6 S 5 6 1005.4 - 0.4 - - - - - - -
24/07:00am 11.5 S 5 6 1005.5 - 0.2 - - - - - - -
24/06:30am 11.5 S 4 5 1005.6 - 0.2 - - - - - - -
24/06:00am 11.5 CALM 0 0 1005.8 - 0.2 - - - - - - -
24/05:30am 11.5 S 6 7 1005.8 - 0.2 - - - - - - -
24/05:00am 11.4 S 6 7 1006.0 - 0.2 - - - - - - -
24/04:30am 11.4 S 6 6 1006.4 - 0.2 - - - - - - -
24/04:00am 11.5 S 6 8 1006.7 - 0.2 - - - - - - -
24/03:30am 11.5 S 6 7 1007.1 - 0.2 - - - - - - -
24/03:00am 11.6 S 6 7 1007.5 - 0.2 - - - - - - -
24/02:30am 11.7 S 8 9 1008.0 - 0.2 - - - - - - -
24/02:00am 11.5 SSW 6 7 1008.6 - 0.2 - - - - - - -
24/01:30am 11.6 S 8 9 1008.9 - 0.2 - - - - - - -
24/01:00am 11.6 S 6 7 1009.4 - 0.2 - - - - - - -
24/12:30am 11.5 S 6 7 1010.0 - 0.2 - - - - - - -
24/12:00am 11.0 S 5 6 1010.4 - 0.2 - - - - - - -
 
Date/Time
EST
Temp

°C
Wind Pressure Rain
since 9am
mm
Weather Cloud Vis
km
Sea
Height
m
Swell
Dir
 
Speed
knots
Gust
knots
hPa Trend Height
m
Period
s
Dir
23/11:30pm 10.5 S 4 5 1010.6 - 0.2 - - - - - - -
23/11:00pm 9.9 S 2 6 1010.9 - 0.2 - - - - - - -
23/10:30pm 9.9 S 5 6 1011.3 - 0.2 - - - - - - -
23/10:00pm 10.8 S 5 6 1012.0 - 0.2 - - - - - - -
23/09:30pm 11.2 S 6 7 1012.6 - 0.2 - - - - - - -
23/09:00pm 11.3 S 7 8 1013.4 - 0.2 - - - - - - -
23/08:30pm 11.7 S 6 7 1013.7 - 0.2 - - - - - - -
23/08:00pm 10.7 S 6 7 1014.1 - 0.2 - - - - - - -
23/07:30pm 9.3 NE 5 6 1014.3 - 0.2 - - - - - - -
23/07:00pm 10.3 NE 4 4 1014.5 - 0.2 - - - - - - -
23/06:30pm 11.8 NE 3 5 1014.6 - 0.2 - - - - - - -
23/06:00pm 13.7 CALM 0 0 1014.4 - 0.2 - - - - - - -
23/05:30pm 14.6 NE 6 7 1014.5 - 0.2 - - - - - - -
23/05:00pm 15.6 NNE 7 8 1014.6 - 0.2 - - - - - - -
23/04:30pm 15.9 NE 6 8 1015.2 - 0.2 - - - - - - -
23/04:00pm 16.1 ENE 7 9 1015.5 - 0.2 - - - - - - -
23/03:30pm 16.5 NNE 9 11 1015.8 - 0.2 - - - - - - -
23/03:00pm 17.3 NE 9 12 1016.0 - 0.2 - - - - - - -
23/02:30pm 17.0 NE 11 13 1016.4 - 0.2 - - - - - - -
23/02:00pm 17.5 ENE 8 11 1016.8 - 0.2 - - - - - - -
23/01:30pm 17.2 ENE 9 11 1017.4 - 0.2 - - - - - - -
23/01:00pm 17.0 NE 10 13 1018.0 - 0.0 - - - - - - -
23/12:30pm 17.8 E 10 14 1018.3 - 0.0 - - - - - - -
23/12:00pm 16.9 ENE 12 16 1019.1 - 0.0 - - - - - - -
23/11:30am 17.2 NE 10 14 1019.6 - 0.0 - - - - - - -
23/11:00am 17.4 ENE 11 13 1020.1 - 0.0 - - - - - - -
23/10:30am 16.8 E 10 13 1020.4 - 0.0 - - - - - - -
23/10:00am 16.3 E 9 12 1020.8 - 0.0 - - - - - - -
23/09:30am 14.8 S 2 5 1021.0 - 0.0 - - - - - - -
23/09:00am 13.0 S 3 5 1021.2 - 0.0 - - - - - - -
23/08:30am 11.3 S 3 5 1021.5 - 0.0 - - - - - - -
23/08:00am 9.2 S 4 5 1021.6 - 0.0 - - - - - - -
23/07:30am 7.5 S 5 5 1021.5 - 0.0 - - - - - - -
23/07:00am 6.8 S 6 7 1021.5 - 0.0 - - - - - - -
23/06:30am 6.8 S 5 7 1021.5 - 0.0 - - - - - - -
23/06:00am 7.5 S 5 5 1021.4 - 0.0 - - - - - - -
23/05:30am 8.4 S 5 6 1021.5 - 0.0 - - - - - - -
23/05:00am 8.1 S 3 5 1021.6 - 0.0 - - - - - - -
23/04:30am 7.2 S 6 7 1021.5 - 0.0 - - - - - - -
23/04:00am 8.3 S 6 7 1021.6 - 0.0 - - - - - - -
23/03:30am 7.9 S 6 8 1021.7 - 0.0 - - - - - - -
23/03:00am 7.8 S 4 6 1022.0 - 0.0 - - - - - - -
23/02:30am 7.5 S 7 9 1022.1 - 0.0 - - - - - - -
23/02:00am 8.5 S 10 11 1022.6 - 0.0 - - - - - - -
23/01:30am 8.0 SSW 8 9 1022.7 - 0.0 - - - - - - -
23/01:00am 8.4 S 9 10 1022.9 - 0.0 - - - - - - -
23/12:30am 8.1 S 9 10 1023.1 - 0.0 - - - - - - -
23/12:00am 7.9 S 7 8 1023.5 - 0.0 - - - - - - -
 
Date/Time
EST
Temp

°C
Wind Pressure Rain
since 9am
mm
Weather Cloud Vis
km
Sea
Height
m
Swell
Dir
 
Speed
knots
Gust
knots
hPa Trend Height
m
Period
s
Dir
22/11:30pm 7.5 S 7 8 1023.7 - 0.0 - - - - - - -
22/11:00pm 8.6 S 3 5 1023.9 - 0.0 - - - - - - -
22/10:30pm 7.6 SSW 9 9 1024.3 - 0.0 - - - - - - -
22/10:00pm 8.5 SSW 7 8 1024.4 - 0.0 - - - - - - -
22/09:30pm 7.6 SSW 8 9 1024.6 - 0.0 - - - - - - -
22/09:00pm 7.8 SSW 8 8 1024.6 - 0.0 - - - - - - -
22/08:30pm 9.4 SSW 6 7 1024.8 - 0.0 - - - - - - -
22/08:00pm 8.6 SW 7 8 1024.8 - 0.0 - - - - - - -
22/07:30pm 9.0 N 6 7 1025.1 - 0.0 - - - - - - -
22/07:00pm 10.9 N 5 5 1025.2 - 0.0 - - - - - - -

Other Formats:

Comma delimited format used in spreadsheet applications
http://www.bom.gov.au/fwo/IDV60701/IDV60701.94953.axf

JavaScript Object Notation format (JSON) in row-major order
http://www.bom.gov.au/fwo/IDV60701/IDV60701.94953.json